Time;durP1;ratioP1;P1;durP2;ratioP2;P2;SDS_P1;SDS_P2;PMS_P1;PMS_P2;Temp;Humidity;BMP_temperature;BMP_pressure;BME280_temperature;BME280_humidity;BME280_pressure;Samples;Min_cycle;Max_cycle;Signal;HPM_P1;HPM_P2
2021/05/25 00:02:19;;;;;;;1.17;0.90;;;15.60;99.90;;;;;;5032356;28;20104;-69
2021/05/25 00:04:45;;;;;;;1.00;1.00;;;15.60;99.90;;;;;;5019235;28;20506;-69
2021/05/25 00:07:11;;;;;;;1.35;1.25;;;15.60;99.90;;;;;;5012159;28;20429;-69
2021/05/25 00:09:38;;;;;;;2.30;1.30;;;15.60;99.90;;;;;;5013099;28;20123;-69
2021/05/25 00:12:06;;;;;;;1.70;1.38;;;15.60;99.90;;;;;;5030511;28;20065;-69
2021/05/25 00:14:32;;;;;;;0.80;0.80;;;15.50;99.90;;;;;;5032623;28;20049;-69
2021/05/25 00:16:58;;;;;;;0.98;0.98;;;15.60;99.90;;;;;;5032044;28;20056;-69
2021/05/25 00:19:24;;;;;;;1.00;1.00;;;15.50;99.90;;;;;;5030919;28;20081;-69
2021/05/25 00:21:51;;;;;;;1.20;1.10;;;15.50;99.90;;;;;;5031609;28;20452;-69
2021/05/25 00:24:17;;;;;;;1.15;1.05;;;15.40;99.90;;;;;;5032049;28;20068;-68
2021/05/25 00:26:44;;;;;;;1.40;1.00;;;15.30;99.90;;;;;;5025195;28;20122;-69
2021/05/25 00:29:10;;;;;;;2.00;0.95;;;15.20;99.90;;;;;;5014174;28;20080;-69
2021/05/25 00:31:36;;;;;;;3.55;1.20;;;15.10;99.90;;;;;;5032258;28;20065;-69
2021/05/25 00:34:03;;;;;;;1.73;1.30;;;15.10;99.90;;;;;;5032241;28;20397;-70
2021/05/25 00:36:29;;;;;;;1.52;1.23;;;15.00;99.90;;;;;;5031201;28;20096;-69
2021/05/25 00:38:55;;;;;;;1.30;1.20;;;15.00;99.90;;;;;;5031429;28;20112;-69
2021/05/25 00:41:22;;;;;;;1.48;1.05;;;15.00;99.90;;;;;;5032296;28;20045;-69
2021/05/25 00:43:50;;;;;;;1.42;1.05;;;15.00;99.90;;;;;;5019376;28;20076;-69
2021/05/25 00:46:16;;;;;;;0.93;0.93;;;15.00;99.90;;;;;;5031883;28;20045;-69
2021/05/25 00:48:42;;;;;;;2.30;1.02;;;15.00;99.90;;;;;;5032050;28;20160;-69
2021/05/25 00:51:08;;;;;;;1.08;0.98;;;15.00;99.90;;;;;;5021087;28;20101;-69
2021/05/25 00:53:34;;;;;;;0.80;0.80;;;15.00;99.90;;;;;;5032255;28;20080;-69
2021/05/25 00:56:00;;;;;;;1.65;1.40;;;14.90;99.90;;;;;;5017977;28;20050;-69
2021/05/25 00:58:28;;;;;;;2.28;1.25;;;14.90;99.90;;;;;;5016707;28;20671;-69
2021/05/25 01:00:55;;;;;;;1.75;1.10;;;14.90;99.90;;;;;;5031957;28;20164;-70
2021/05/25 01:03:23;;;;;;;2.60;1.00;;;14.90;99.90;;;;;;5033568;28;20689;-70
2021/05/25 01:05:51;;;;;;;2.35;0.75;;;14.80;99.90;;;;;;5034950;28;20784;-69
2021/05/25 01:08:17;;;;;;;1.25;1.10;;;14.70;99.90;;;;;;5028365;28;20430;-69
2021/05/25 01:10:47;;;;;;;1.05;0.65;;;14.70;99.90;;;;;;5029161;28;20440;-69
2021/05/25 01:13:16;;;;;;;1.42;0.98;;;14.50;99.90;;;;;;5035166;28;20054;-69
2021/05/25 01:15:42;;;;;;;1.20;1.05;;;14.40;99.90;;;;;;5023347;28;20046;-69
2021/05/25 01:18:09;;;;;;;1.67;0.90;;;14.30;99.90;;;;;;5022971;28;20045;-69
2021/05/25 01:20:38;;;;;;;2.05;1.23;;;14.30;99.90;;;;;;5017101;28;20042;-69
2021/05/25 01:23:08;;;;;;;1.17;0.95;;;14.10;99.90;;;;;;5028586;28;20069;-69
2021/05/25 01:25:35;;;;;;;0.90;0.90;;;14.10;99.90;;;;;;5023085;28;20041;-69
2021/05/25 01:28:03;;;;;;;1.13;0.90;;;14.10;99.90;;;;;;5015739;28;20072;-70
2021/05/25 01:30:31;;;;;;;1.70;1.60;;;14.00;99.90;;;;;;5022877;28;20045;-69
2021/05/25 01:32:59;;;;;;;1.05;1.00;;;14.00;99.90;;;;;;5035513;28;20069;-70
2021/05/25 01:35:27;;;;;;;1.92;0.70;;;14.00;99.90;;;;;;5034834;28;20458;-69
2021/05/25 01:37:55;;;;;;;2.35;1.23;;;14.00;99.90;;;;;;5034682;28;20048;-70
2021/05/25 01:40:23;;;;;;;3.25;1.30;;;13.90;99.90;;;;;;5034247;28;20092;-69
2021/05/25 01:42:50;;;;;;;1.77;0.95;;;13.90;99.90;;;;;;5035162;28;20069;-69
2021/05/25 01:45:18;;;;;;;1.67;1.20;;;13.70;99.90;;;;;;5019590;28;20551;-69
2021/05/25 01:47:44;;;;;;;11.73;1.05;;;13.60;99.90;;;;;;5030973;28;20453;-69
2021/05/25 01:50:13;;;;;;;1.05;1.05;;;13.50;99.90;;;;;;5034972;28;20079;-69
2021/05/25 01:52:52;;;;;;;1.33;1.13;;;13.50;99.90;;;;;;5035233;28;20084;-69
2021/05/25 01:55:25;;;;;;;5.20;1.30;;;13.50;99.90;;;;;;5034998;28;20049;-70
2021/05/25 01:57:51;;;;;;;1.85;0.95;;;13.40;99.90;;;;;;5034941;28;20077;-70
2021/05/25 02:00:18;;;;;;;2.13;1.02;;;13.40;99.90;;;;;;5023619;28;20069;-70
2021/05/25 02:02:44;;;;;;;2.72;1.50;;;13.30;99.90;;;;;;5016553;28;20497;-70
2021/05/25 02:05:10;;;;;;;3.17;1.35;;;13.20;99.90;;;;;;5015198;28;20098;-70
2021/05/25 02:07:36;;;;;;;1.30;1.30;;;13.20;99.90;;;;;;5022229;28;20049;-70
2021/05/25 02:10:03;;;;;;;1.25;1.15;;;13.20;99.90;;;;;;5034035;28;20058;-70
2021/05/25 02:12:30;;;;;;;1.40;1.30;;;13.20;99.90;;;;;;5035185;28;20072;-70
2021/05/25 02:14:56;;;;;;;1.88;1.13;;;13.10;99.90;;;;;;5032880;28;20073;-70
2021/05/25 02:17:25;;;;;;;1.63;1.23;;;13.10;99.90;;;;;;5032492;28;20069;-70
2021/05/25 02:19:51;;;;;;;2.10;1.42;;;13.10;99.90;;;;;;5027414;28;20486;-70
2021/05/25 02:22:17;;;;;;;1.23;1.13;;;13.00;99.90;;;;;;5034730;28;20081;-70
2021/05/25 02:24:43;;;;;;;1.20;1.20;;;13.00;99.90;;;;;;5034036;28;20135;-70
2021/05/25 02:27:09;;;;;;;1.55;1.48;;;12.90;99.90;;;;;;5034212;28;20053;-70
2021/05/25 02:29:36;;;;;;;1.63;1.52;;;12.90;99.90;;;;;;5030911;28;20077;-70
2021/05/25 02:32:02;;;;;;;3.15;1.38;;;12.80;99.90;;;;;;5033585;28;20084;-70
2021/05/25 02:34:28;;;;;;;1.70;1.60;;;12.80;99.90;;;;;;5021770;28;20466;-70
2021/05/25 02:36:54;;;;;;;1.15;1.15;;;12.70;99.90;;;;;;5015922;28;20080;-70
2021/05/25 02:39:20;;;;;;;2.38;1.60;;;12.70;99.90;;;;;;5023106;28;20107;-70
2021/05/25 02:41:46;;;;;;;2.05;1.30;;;12.70;99.90;;;;;;5022676;28;20486;-70
2021/05/25 02:44:12;;;;;;;0.90;0.90;;;12.80;99.90;;;;;;5023642;28;20053;-70
2021/05/25 02:46:39;;;;;;;2.15;1.10;;;12.70;99.90;;;;;;5034069;28;20076;-69
2021/05/25 02:49:05;;;;;;;2.13;1.55;;;12.70;99.90;;;;;;5033798;28;20080;-69
2021/05/25 02:51:31;;;;;;;4.57;1.67;;;12.60;99.90;;;;;;5033963;28;20045;-69
2021/05/25 02:53:57;;;;;;;2.28;1.55;;;12.50;99.90;;;;;;5014086;28;20500;-70
2021/05/25 02:56:23;;;;;;;1.95;1.85;;;12.50;99.90;;;;;;5013784;28;20469;-69
2021/05/25 02:58:51;;;;;;;2.78;1.42;;;12.60;99.90;;;;;;5032248;28;20088;-69
2021/05/25 03:01:17;;;;;;;3.65;1.90;;;12.70;99.90;;;;;;5032261;28;20103;-69
2021/05/25 03:03:44;;;;;;;1.50;1.40;;;12.50;99.90;;;;;;5022925;28;20046;-69
2021/05/25 03:06:10;;;;;;;3.13;1.52;;;12.50;99.90;;;;;;5016899;28;20100;-70
2021/05/25 03:08:36;;;;;;;2.00;1.65;;;12.50;99.90;;;;;;5017545;28;20081;-69
2021/05/25 03:11:02;;;;;;;1.80;1.70;;;12.60;99.90;;;;;;5014017;28;20391;-69
2021/05/25 03:13:28;;;;;;;2.80;1.30;;;12.50;99.90;;;;;;5014249;28;20057;-70
2021/05/25 03:15:54;;;;;;;3.90;2.08;;;12.40;99.90;;;;;;5013764;28;20621;-70
2021/05/25 03:18:21;;;;;;;2.00;1.50;;;12.50;99.90;;;;;;5013530;28;20143;-70
2021/05/25 03:20:49;;;;;;;2.42;1.60;;;12.50;99.90;;;;;;5013855;28;20080;-70
2021/05/25 03:23:16;;;;;;;6.65;2.50;;;12.40;99.90;;;;;;5016454;28;20053;-69
2021/05/25 03:25:43;;;;;;;2.00;1.80;;;12.40;99.90;;;;;;5027157;28;20054;-69
2021/05/25 03:28:11;;;;;;;1.60;1.50;;;12.40;99.90;;;;;;5013708;28;20099;-70
2021/05/25 03:30:38;;;;;;;1.80;1.65;;;12.40;99.90;;;;;;5013571;28;20136;-69
2021/05/25 03:33:05;;;;;;;1.85;1.75;;;12.40;99.90;;;;;;5013619;28;20452;-69
2021/05/25 03:35:31;;;;;;;1.90;1.80;;;12.30;99.90;;;;;;5013092;28;20078;-69
2021/05/25 03:37:58;;;;;;;2.13;1.92;;;12.40;99.90;;;;;;5026132;28;20520;-72
2021/05/25 03:40:25;;;;;;;3.08;1.75;;;12.40;99.90;;;;;;5015643;28;20068;-72
2021/05/25 03:42:53;;;;;;;1.65;1.50;;;12.40;99.90;;;;;;5023748;28;20046;-71
2021/05/25 03:45:20;;;;;;;2.63;1.70;;;12.30;99.90;;;;;;5025583;28;20497;-73
2021/05/25 03:47:46;;;;;;;1.85;1.75;;;12.30;99.90;;;;;;5033041;28;20073;-72
2021/05/25 03:50:13;;;;;;;1.95;1.80;;;12.30;99.90;;;;;;5032422;28;20045;-74
2021/05/25 03:52:42;;;;;;;2.95;2.15;;;12.30;99.90;;;;;;5015775;28;20046;-74
2021/05/25 03:55:18;;;;;;;2.35;1.90;;;12.40;99.90;;;;;;5012736;28;20050;-73
2021/05/25 04:00:29;;;;;;;2.25;2.05;;;12.30;99.90;;;;;;5016890;28;20061;-73
2021/05/25 04:02:55;;;;;;;2.00;1.80;;;12.30;99.90;;;;;;5031786;28;20481;-73
2021/05/25 04:05:21;;;;;;;3.45;2.22;;;12.40;99.90;;;;;;5031986;28;20069;-74
2021/05/25 04:07:47;;;;;;;2.38;2.17;;;12.50;99.90;;;;;;5032818;28;20073;-75
2021/05/25 04:10:14;;;;;;;2.75;1.83;;;12.40;99.90;;;;;;5032832;28;20053;-74
2021/05/25 04:12:41;;;;;;;3.50;1.98;;;12.50;99.90;;;;;;5032712;28;20505;-76
2021/05/25 04:15:08;;;;;;;1.70;1.58;;;12.60;99.90;;;;;;5019679;28;20133;-71
2021/05/25 04:17:35;;;;;;;2.63;2.10;;;12.60;99.90;;;;;;5012456;28;20045;-69
2021/05/25 04:20:01;;;;;;;3.28;2.05;;;12.60;99.90;;;;;;5029326;28;20077;-72
2021/05/25 04:22:27;;;;;;;4.15;2.38;;;12.60;99.90;;;;;;5018407;28;20049;-70
2021/05/25 04:24:53;;;;;;;2.90;1.88;;;12.50;99.90;;;;;;5013389;28;20092;-73
2021/05/25 04:27:20;;;;;;;4.30;2.15;;;12.50;99.90;;;;;;5027477;28;20054;-71
2021/05/25 04:29:46;;;;;;;4.07;1.95;;;12.60;99.90;;;;;;5022060;28;20073;-70
2021/05/25 04:32:12;;;;;;;2.30;2.10;;;12.60;99.90;;;;;;5013200;28;20074;-70
2021/05/25 04:34:38;;;;;;;4.68;1.83;;;12.60;99.90;;;;;;5018912;28;20042;-74
2021/05/25 04:37:04;;;;;;;2.83;2.33;;;12.60;99.90;;;;;;5013049;28;20045;-74
2021/05/25 04:39:30;;;;;;;3.05;2.03;;;12.60;99.90;;;;;;5014837;28;20076;-74
2021/05/25 04:41:57;;;;;;;4.22;1.90;;;12.60;99.90;;;;;;5013433;28;20042;-71
2021/05/25 04:44:24;;;;;;;2.75;2.00;;;12.50;99.90;;;;;;5017068;28;20073;-71
2021/05/25 04:46:50;;;;;;;2.38;1.65;;;12.50;99.90;;;;;;5013222;28;20077;-70
2021/05/25 04:49:16;;;;;;;2.65;2.03;;;12.60;99.90;;;;;;5017981;28;20131;-71
2021/05/25 04:51:42;;;;;;;2.15;1.70;;;12.60;99.90;;;;;;5016941;28;20045;-72
2021/05/25 04:54:08;;;;;;;1.40;1.30;;;12.70;99.90;;;;;;5023940;28;20092;-73
2021/05/25 04:56:35;;;;;;;3.22;2.20;;;12.70;99.90;;;;;;5021442;28;20084;-72
2021/05/25 04:59:01;;;;;;;1.60;1.30;;;12.70;99.90;;;;;;5029229;28;20080;-73
2021/05/25 05:01:29;;;;;;;1.77;1.67;;;12.80;99.90;;;;;;5027548;28;20080;-73
2021/05/25 05:03:56;;;;;;;1.73;1.25;;;12.90;99.90;;;;;;5029889;28;20139;-73
2021/05/25 05:06:22;;;;;;;2.10;1.50;;;12.90;99.90;;;;;;5012019;28;20050;-72
2021/05/25 05:08:48;;;;;;;2.47;1.50;;;12.90;99.90;;;;;;5012179;28;20042;-72
2021/05/25 05:11:14;;;;;;;2.25;1.90;;;13.00;99.90;;;;;;5011922;28;20511;-73
2021/05/25 05:13:40;;;;;;;1.75;1.65;;;13.00;99.90;;;;;;5023670;28;20077;-72
2021/05/25 05:16:06;;;;;;;3.97;1.65;;;13.20;99.90;;;;;;5029573;28;20077;-72
2021/05/25 05:18:33;;;;;;;1.55;1.30;;;13.20;99.90;;;;;;5012345;28;20364;-73
2021/05/25 05:20:59;;;;;;;3.70;1.50;;;13.30;99.90;;;;;;5013920;28;20042;-73
2021/05/25 05:23:25;;;;;;;2.22;1.63;;;13.30;99.90;;;;;;5020706;28;20046;-74
2021/05/25 05:25:51;;;;;;;3.85;1.77;;;13.30;99.90;;;;;;5011959;28;20073;-73
2021/05/25 05:28:17;;;;;;;2.60;1.40;;;13.30;99.90;;;;;;5012046;28;20050;-73
2021/05/25 05:30:44;;;;;;;1.40;1.30;;;13.30;99.90;;;;;;5012167;28;20046;-75
2021/05/25 05:33:10;;;;;;;1.50;1.40;;;13.20;99.90;;;;;;5013435;28;20038;-72
2021/05/25 05:35:36;;;;;;;1.70;1.60;;;13.10;99.90;;;;;;5019008;28;20046;-73
2021/05/25 05:38:03;;;;;;;1.77;1.67;;;13.10;99.90;;;;;;5012022;28;20081;-77
2021/05/25 05:40:29;;;;;;;2.22;1.58;;;13.00;99.90;;;;;;5013180;28;20096;-74
2021/05/25 05:42:56;;;;;;;2.35;1.90;;;13.00;99.90;;;;;;5016122;28;20575;-76
2021/05/25 05:45:22;;;;;;;1.42;1.33;;;13.00;99.90;;;;;;5031251;28;20481;-74
2021/05/25 05:47:48;;;;;;;1.58;1.48;;;13.00;99.90;;;;;;5030515;28;20050;-74
2021/05/25 05:50:15;;;;;;;2.05;1.42;;;13.00;99.90;;;;;;5032274;28;20065;-72
2021/05/25 05:52:42;;;;;;;2.05;1.73;;;12.90;99.90;;;;;;5026265;28;20544;-71
2021/05/25 05:55:09;;;;;;;2.28;1.63;;;12.80;99.90;;;;;;5035078;28;20398;-72
2021/05/25 05:57:35;;;;;;;1.52;1.42;;;12.80;99.90;;;;;;5034261;28;20053;-72
2021/05/25 06:00:01;;;;;;;2.85;1.65;;;12.80;99.90;;;;;;5035147;28;20080;-72
2021/05/25 06:02:27;;;;;;;3.58;1.70;;;12.80;99.90;;;;;;5035190;28;20046;-71
2021/05/25 06:04:53;;;;;;;1.88;1.70;;;12.80;99.90;;;;;;5024495;28;20050;-71
2021/05/25 06:07:20;;;;;;;2.10;1.90;;;12.90;99.90;;;;;;5034508;28;20092;-71
2021/05/25 06:09:47;;;;;;;1.67;1.58;;;12.80;99.90;;;;;;5033003;28;20060;-71
2021/05/25 06:12:13;;;;;;;6.22;1.70;;;12.80;99.90;;;;;;5035135;28;20397;-72
2021/05/25 06:14:39;;;;;;;1.63;1.52;;;12.80;99.90;;;;;;5034138;28;20069;-72
2021/05/25 06:17:05;;;;;;;1.48;1.38;;;12.70;99.90;;;;;;5034378;28;20077;-71
2021/05/25 06:19:31;;;;;;;2.58;2.03;;;12.80;99.90;;;;;;5027633;28;20069;-72
2021/05/25 06:21:57;;;;;;;2.08;1.05;;;12.70;99.90;;;;;;5030481;28;20041;-72
2021/05/25 06:24:23;;;;;;;3.28;2.08;;;12.80;99.90;;;;;;5022480;28;20073;-72
2021/05/25 06:26:50;;;;;;;2.15;1.30;;;12.80;99.90;;;;;;5032575;28;20053;-76
2021/05/25 06:29:16;;;;;;;3.50;2.13;;;12.70;99.90;;;;;;5025785;28;20049;-74
2021/05/25 06:31:42;;;;;;;1.13;1.02;;;12.70;99.90;;;;;;5035093;28;20084;-74
2021/05/25 06:34:08;;;;;;;3.35;1.73;;;12.70;99.90;;;;;;5026284;28;20046;-75
2021/05/25 06:36:34;;;;;;;1.20;1.10;;;12.70;99.90;;;;;;5014848;28;20057;-73
2021/05/25 06:39:00;;;;;;;2.22;1.60;;;12.60;99.90;;;;;;5022360;28;20048;-73
2021/05/25 06:41:27;;;;;;;1.40;1.30;;;12.60;99.90;;;;;;5034391;28;20045;-73
2021/05/25 06:43:54;;;;;;;2.30;1.95;;;12.70;99.90;;;;;;5034277;28;20119;-73
2021/05/25 06:46:20;;;;;;;1.52;1.42;;;12.70;99.90;;;;;;5034020;28;20096;-73
2021/05/25 06:48:46;;;;;;;1.90;1.35;;;12.70;99.90;;;;;;5027864;28;20531;-73
2021/05/25 06:51:12;;;;;;;2.60;1.00;;;12.80;99.90;;;;;;5020860;28;20069;-73
2021/05/25 06:53:38;;;;;;;6.68;1.10;;;12.80;99.90;;;;;;5015250;28;20458;-71
2021/05/25 06:56:05;;;;;;;3.15;2.15;;;12.80;99.90;;;;;;5016913;28;20132;-73
2021/05/25 06:58:32;;;;;;;1.20;1.10;;;12.90;99.90;;;;;;5023149;28;20062;-73
2021/05/25 07:00:59;;;;;;;0.90;0.90;;;13.00;99.90;;;;;;5014293;28;20046;-73
2021/05/25 07:03:26;;;;;;;2.60;1.20;;;13.10;99.90;;;;;;5026558;28;20103;-73
2021/05/25 07:05:52;;;;;;;0.82;0.75;;;13.10;99.90;;;;;;5014596;28;20054;-74
2021/05/25 07:08:18;;;;;;;3.92;2.63;;;13.10;99.90;;;;;;5016006;28;20076;-73
2021/05/25 07:10:44;;;;;;;8.93;3.25;;;13.10;99.90;;;;;;5014717;28;20414;-72
2021/05/25 07:13:13;;;;;;;3.25;1.27;;;13.20;99.90;;;;;;5018312;28;20037;-74
2021/05/25 07:15:39;;;;;;;4.82;2.45;;;13.10;99.90;;;;;;5031079;28;20045;-73
2021/05/25 07:18:06;;;;;;;0.88;0.65;;;13.30;99.90;;;;;;5033908;28;20448;-73
2021/05/25 07:20:32;;;;;;;2.17;0.82;;;13.30;99.90;;;;;;5014650;28;20061;-72
2021/05/25 07:22:58;;;;;;;1.75;1.30;;;13.10;99.90;;;;;;5014144;28;20066;-73
2021/05/25 07:25:26;;;;;;;3.03;1.10;;;13.10;99.90;;;;;;5014237;28;20064;-74
2021/05/25 07:27:53;;;;;;;1.40;1.30;;;13.20;99.90;;;;;;5013821;28;20042;-74
2021/05/25 07:30:20;;;;;;;0.82;0.60;;;13.30;99.90;;;;;;5025714;28;20163;-75
2021/05/25 07:32:46;;;;;;;0.65;0.65;;;13.10;99.90;;;;;;5033650;28;20050;-71
2021/05/25 07:35:15;;;;;;;1.88;1.00;;;13.00;99.90;;;;;;5033775;28;20049;-72
2021/05/25 07:37:41;;;;;;;0.70;0.70;;;12.90;99.90;;;;;;5021700;28;20060;-72
2021/05/25 07:40:08;;;;;;;1.00;0.70;;;12.90;99.90;;;;;;5016289;28;20045;-71
2021/05/25 07:42:35;;;;;;;1.17;0.60;;;12.80;99.90;;;;;;5013615;28;20386;-71
2021/05/25 07:45:01;;;;;;;0.65;0.60;;;12.80;99.90;;;;;;5021791;28;20092;-72
2021/05/25 07:47:29;;;;;;;1.55;0.90;;;12.90;99.90;;;;;;5032606;28;20069;-71
2021/05/25 07:49:55;;;;;;;1.98;0.93;;;12.90;99.90;;;;;;5017627;28;20100;-71
2021/05/25 07:52:22;;;;;;;2.40;1.50;;;12.90;99.90;;;;;;5017982;28;20134;-71
2021/05/25 07:54:48;;;;;;;1.40;0.90;;;13.00;99.90;;;;;;5016727;28;20050;-70
2021/05/25 07:57:14;;;;;;;1.05;0.93;;;13.10;99.90;;;;;;5015029;28;20433;-69
2021/05/25 07:59:40;;;;;;;2.88;0.70;;;13.00;99.90;;;;;;5014045;28;20072;-72
2021/05/25 08:02:06;;;;;;;1.13;0.60;;;13.10;99.90;;;;;;5013413;28;20409;-70
2021/05/25 08:04:32;;;;;;;5.80;1.27;;;13.10;99.90;;;;;;5029752;28;20080;-70
2021/05/25 08:06:58;;;;;;;1.40;0.75;;;13.20;99.90;;;;;;5030873;28;20042;-73
2021/05/25 08:09:25;;;;;;;0.93;0.85;;;13.30;99.90;;;;;;5024020;28;20398;-72
2021/05/25 08:11:52;;;;;;;2.40;1.23;;;13.30;99.90;;;;;;5032012;28;20477;-73
2021/05/25 08:14:18;;;;;;;1.92;0.68;;;13.20;99.90;;;;;;5032142;28;20389;-72
2021/05/25 08:16:45;;;;;;;0.50;0.47;;;13.40;99.90;;;;;;5032601;28;20077;-71
2021/05/25 08:19:16;;;;;;;0.90;0.90;;;13.50;99.90;;;;;;5024052;28;20046;-72
2021/05/25 08:21:42;;;;;;;1.08;0.73;;;13.40;99.90;;;;;;5025634;28;20053;-70
2021/05/25 08:24:09;;;;;;;0.63;0.60;;;13.50;99.90;;;;;;5013551;28;20042;-72
2021/05/25 08:26:39;;;;;;;0.68;0.63;;;13.60;99.90;;;;;;5022027;28;20099;-71
2021/05/25 08:29:05;;;;;;;1.17;0.70;;;13.70;99.90;;;;;;5030973;28;20485;-72
2021/05/25 08:31:31;;;;;;;0.70;0.60;;;13.40;99.90;;;;;;5017158;28;20041;-74
2021/05/25 08:33:57;;;;;;;0.75;0.70;;;13.30;99.90;;;;;;5023862;28;20418;-71
2021/05/25 08:36:23;;;;;;;1.25;0.88;;;13.30;99.90;;;;;;5012483;28;20144;-71
2021/05/25 08:38:50;;;;;;;0.93;0.80;;;13.40;99.90;;;;;;5018903;28;20083;-71
2021/05/25 08:41:16;;;;;;;0.80;0.80;;;13.40;99.90;;;;;;5031843;28;20073;-75
2021/05/25 08:43:43;;;;;;;1.25;0.70;;;13.50;99.90;;;;;;5032580;28;20073;-72
2021/05/25 08:46:09;;;;;;;0.85;0.50;;;13.50;99.90;;;;;;5020015;28;20050;-70
2021/05/25 08:48:40;;;;;;;0.93;0.70;;;13.60;99.90;;;;;;5023047;28;20509;-71
2021/05/25 08:51:06;;;;;;;0.50;0.50;;;13.60;99.90;;;;;;5032139;28;20045;-70
2021/05/25 08:53:32;;;;;;;0.95;0.70;;;13.90;99.90;;;;;;5024771;28;20069;-74
2021/05/25 08:55:59;;;;;;;0.60;0.60;;;14.10;99.90;;;;;;5012008;28;20046;-70
2021/05/25 08:58:25;;;;;;;3.10;1.20;;;14.00;99.90;;;;;;5012502;28;20053;-71
2021/05/25 09:00:54;;;;;;;1.85;1.13;;;14.10;99.90;;;;;;5012146;28;20050;-71
2021/05/25 09:03:21;;;;;;;0.93;0.70;;;14.20;99.90;;;;;;5012570;28;20046;-71
2021/05/25 09:05:51;;;;;;;2.65;0.70;;;14.20;99.90;;;;;;5013012;28;20046;-72
2021/05/25 09:08:17;;;;;;;1.40;1.02;;;14.20;99.90;;;;;;5017440;28;20049;-71
2021/05/25 09:10:46;;;;;;;1.27;1.15;;;14.10;99.90;;;;;;5013407;28;20050;-73
2021/05/25 09:13:15;;;;;;;0.60;0.60;;;14.00;99.90;;;;;;5013631;28;20050;-74
2021/05/25 09:15:44;;;;;;;0.75;0.50;;;14.10;99.90;;;;;;5031446;28;20054;-73
2021/05/25 09:18:12;;;;;;;1.25;0.77;;;14.20;99.90;;;;;;5025079;28;20124;-74
2021/05/25 09:20:41;;;;;;;1.17;0.60;;;13.90;99.90;;;;;;5021507;28;20049;-72
2021/05/25 09:23:07;;;;;;;2.63;2.13;;;13.80;99.90;;;;;;5025640;28;20042;-71
2021/05/25 09:25:34;;;;;;;8.35;4.10;;;13.90;99.90;;;;;;5015661;28;20409;-70
2021/05/25 09:28:07;;;;;;;0.95;0.77;;;14.20;99.90;;;;;;5016012;28;20070;-73
2021/05/25 09:30:34;;;;;;;1.55;0.82;;;14.70;99.90;;;;;;5020002;28;20297;-72
2021/05/25 09:33:03;;;;;;;1.20;0.93;;;15.40;98.90;;;;;;5030962;28;20059;-73
2021/05/25 09:35:31;;;;;;;2.60;0.85;;;15.80;99.50;;;;;;5027065;28;20077;-73
2021/05/25 09:38:00;;;;;;;0.50;0.50;;;15.80;95.80;;;;;;5024983;28;20050;-75
2021/05/25 09:40:28;;;;;;;0.77;0.68;;;16.60;94.40;;;;;;5035283;28;20048;-71
2021/05/25 09:43:13;;;;;;;0.70;0.70;;;17.40;90.30;;;;;;5035582;28;20045;-71
2021/05/25 09:45:55;;;;;;;0.80;0.77;;;17.50;88.40;;;;;;5031147;28;20045;-71
2021/05/25 09:48:21;;;;;;;0.40;0.40;;;17.70;84.30;;;;;;5015325;28;20073;-72
2021/05/25 09:50:49;;;;;;;1.15;0.60;;;18.00;82.00;;;;;;5015048;28;20073;-72
2021/05/25 09:53:20;;;;;;;1.75;0.88;;;17.90;82.60;;;;;;5028063;28;20136;-72
2021/05/25 09:55:49;;;;;;;0.85;0.60;;;17.80;84.20;;;;;;5030888;28;20100;-73
2021/05/25 09:58:15;;;;;;;1.05;0.95;;;17.10;81.50;;;;;;5015199;28;20551;-73
2021/05/25 10:00:44;;;;;;;0.60;0.60;;;17.20;82.80;;;;;;5015335;28;20497;-73
2021/05/25 10:03:15;;;;;;;0.65;0.65;;;17.20;79.50;;;;;;5015041;28;20103;-74
2021/05/25 10:05:56;;;;;;;0.57;0.45;;;16.60;82.50;;;;;;5015324;28;20042;-73
2021/05/25 10:08:24;;;;;;;0.43;0.43;;;16.50;83.80;;;;;;5017887;28;20049;-73
2021/05/25 10:10:51;;;;;;;1.30;0.70;;;16.20;85.90;;;;;;5034946;28;20096;-73
2021/05/25 10:13:19;;;;;;;0.95;0.80;;;15.90;87.00;;;;;;5036942;28;20041;-74
2021/05/25 10:15:48;;;;;;;0.85;0.50;;;16.00;89.00;;;;;;5029016;28;20045;-73
2021/05/25 10:21:09;;;;;;;1.15;0.77;;;17.80;80.60;;;;;;5034761;28;20046;-74
2021/05/25 10:23:37;;;;;;;1.02;0.50;;;18.30;77.30;;;;;;5023099;28;20438;-74
2021/05/25 10:26:08;;;;;;;2.30;0.85;;;17.50;79.10;;;;;;5028661;28;20442;-74
2021/05/25 10:28:35;;;;;;;0.40;0.40;;;18.10;78.50;;;;;;5034742;28;20045;-75
2021/05/25 10:31:02;;;;;;;0.73;0.68;;;18.80;78.00;;;;;;5034393;28;20052;-74
2021/05/25 10:33:32;;;;;;;0.85;0.77;;;19.30;72.50;;;;;;5027007;28;20038;-74
2021/05/25 10:36:05;;;;;;;0.32;0.32;;;18.90;69.20;;;;;;5014869;28;20123;-74
2021/05/25 10:38:32;;;;;;;1.10;0.98;;;18.30;69.70;;;;;;5018540;28;20041;-73
2021/05/25 10:41:01;;;;;;;0.85;0.77;;;18.00;72.00;;;;;;5033808;28;20041;-74
2021/05/25 10:43:45;;;;;;;3.47;1.42;;;17.60;73.30;;;;;;5033770;28;20555;-74
2021/05/25 10:46:39;;;;;;;2.13;0.40;;;17.30;75.60;;;;;;5014666;28;20046;-75
2021/05/25 10:49:15;;;;;;;1.15;0.57;;;17.60;73.60;;;;;;5018968;28;20046;-74
2021/05/25 10:52:18;;;;;;;0.43;0.40;;;18.00;73.20;;;;;;5035515;28;20128;-77
2021/05/25 10:54:54;;;;;;;0.55;0.50;;;18.10;72.20;;;;;;5028790;28;20468;-72
2021/05/25 10:57:46;;;;;;;0.73;0.40;;;17.90;71.50;;;;;;5033690;28;20480;-75
2021/05/25 11:00:14;;;;;;;2.13;0.85;;;17.70;71.90;;;;;;5014401;28;20046;-73
2021/05/25 11:02:58;;;;;;;0.45;0.20;;;17.30;76.10;;;;;;5026090;28;20071;-75
2021/05/25 11:05:54;;;;;;;0.50;0.40;;;18.00;70.80;;;;;;5030206;28;20049;-72
2021/05/25 11:08:24;;;;;;;0.57;0.55;;;18.10;70.50;;;;;;5020893;28;20052;-73
2021/05/25 11:10:53;;;;;;;1.20;0.77;;;19.10;68.40;;;;;;5022748;28;20045;-71
2021/05/25 11:13:25;;;;;;;1.35;0.70;;;20.00;65.30;;;;;;5033720;28;20140;-73
2021/05/25 11:16:02;;;;;;;0.22;0.22;;;18.60;65.00;;;;;;5022253;28;20045;-73
2021/05/25 11:18:33;;;;;;;0.68;0.63;;;17.40;70.10;;;;;;5016837;28;20069;-73
2021/05/25 11:21:13;;;;;;;0.80;0.80;;;17.00;72.90;;;;;;5014313;28;20069;-74
2021/05/25 11:23:44;;;;;;;0.55;0.52;;;17.80;76.10;;;;;;5013830;28;20052;-73
2021/05/25 11:26:30;;;;;;;1.60;0.93;;;18.90;69.50;;;;;;5013558;28;20050;-74
2021/05/25 11:29:23;;;;;;;0.35;0.35;;;19.30;69.00;;;;;;5013629;28;20042;-74
2021/05/25 11:31:49;;;;;;;0.63;0.50;;;18.90;65.10;;;;;;5013756;28;20057;-72
2021/05/25 11:34:19;;;;;;;1.75;0.30;;;18.10;67.60;;;;;;5013522;28;20639;-77
2021/05/25 11:36:45;;;;;;;1.60;1.48;;;17.90;69.50;;;;;;5013767;28;20053;-75
2021/05/25 11:39:15;;;;;;;0.47;0.45;;;18.80;69.20;;;;;;5028743;28;20046;-76
2021/05/25 11:41:41;;;;;;;0.57;0.52;;;19.50;65.90;;;;;;5021262;28;20429;-72
2021/05/25 11:44:10;;;;;;;0.40;0.40;;;18.70;64.50;;;;;;5015026;28;20088;-71
2021/05/25 11:46:41;;;;;;;1.00;0.80;;;18.10;66.30;;;;;;5015863;28;20053;-72
2021/05/25 11:49:08;;;;;;;1.83;0.82;;;17.40;69.00;;;;;;5032521;28;20053;-72
2021/05/25 11:51:35;;;;;;;1.20;1.10;;;17.40;70.30;;;;;;5030165;28;20046;-73
2021/05/25 11:54:08;;;;;;;2.60;1.63;;;17.70;76.40;;;;;;5032011;28;20104;-73
2021/05/25 11:56:36;;;;;;;1.05;0.93;;;18.00;75.20;;;;;;5033698;28;20141;-72
2021/05/25 11:59:02;;;;;;;0.73;0.57;;;17.70;68.20;;;;;;5033568;28;20045;-72
2021/05/25 12:01:46;;;;;;;0.45;0.35;;;17.80;68.00;;;;;;5033509;28;20073;-71
2021/05/25 12:04:14;;;;;;;0.68;0.68;;;18.10;66.80;;;;;;5025981;28;20076;-72
2021/05/25 12:06:51;;;;;;;1.27;0.40;;;17.30;67.70;;;;;;5027693;28;20073;-72
2021/05/25 12:09:18;;;;;;;0.35;0.30;;;16.60;70.80;;;;;;5031661;28;20390;-72
2021/05/25 12:11:47;;;;;;;3.20;0.70;;;16.30;72.70;;;;;;5032482;28;20053;-72
2021/05/25 12:14:15;;;;;;;0.43;0.43;;;15.60;74.60;;;;;;5024735;28;20504;-71
2021/05/25 12:16:42;;;;;;;1.70;0.80;;;15.40;77.60;;;;;;5032727;28;20045;-72
2021/05/25 12:19:09;;;;;;;2.15;0.65;;;15.30;77.60;;;;;;5022163;28;20041;-73
2021/05/25 12:21:36;;;;;;;0.65;0.65;;;15.20;77.30;;;;;;5028344;28;20046;-74
2021/05/25 12:24:02;;;;;;;0.57;0.57;;;15.30;77.40;;;;;;5012763;28;20088;-73
2021/05/25 12:26:28;;;;;;;0.93;0.60;;;15.20;77.90;;;;;;5012657;28;20092;-73
2021/05/25 12:28:56;;;;;;;1.35;0.50;;;15.60;78.90;;;;;;5012197;28;20081;-75
2021/05/25 12:31:29;;;;;;;0.77;0.47;;;17.00;77.40;;;;;;5012547;28;20104;-74
2021/05/25 12:33:55;;;;;;;0.30;0.28;;;18.20;70.00;;;;;;5019462;28;20501;-74
2021/05/25 12:36:24;;;;;;;1.48;0.60;;;19.40;63.10;;;;;;5031494;28;20089;-74
2021/05/25 12:38:58;;;;;;;0.95;0.50;;;19.70;62.90;;;;;;5032230;28;20635;-74
2021/05/25 12:41:25;;;;;;;0.52;0.47;;;20.30;59.70;;;;;;5031828;28;20045;-75
2021/05/25 12:44:06;;;;;;;0.95;0.90;;;18.50;62.20;;;;;;5032407;28;20555;-73
2021/05/25 12:46:35;;;;;;;1.25;0.30;;;18.80;64.10;;;;;;5032026;28;20425;-74
2021/05/25 12:49:01;;;;;;;1.73;0.30;;;19.00;62.90;;;;;;5026750;28;20042;-74
2021/05/25 12:51:28;;;;;;;0.52;0.43;;;19.10;64.70;;;;;;5012237;28;20081;-73
2021/05/25 12:53:55;;;;;;;2.20;0.43;;;19.00;64.30;;;;;;5012085;28;20077;-75
2021/05/25 12:56:23;;;;;;;0.95;0.70;;;19.70;61.10;;;;;;5011889;28;20485;-74
2021/05/25 12:58:50;;;;;;;1.58;0.77;;;19.10;63.00;;;;;;5015059;28;20438;-75